Time,TemperatureF,DewpointF,PressureIn,WindDirection,WindDirectionDegrees,WindSpeedMPH,WindSpeedGustMPH,Humidity,HourlyPrecipIn,Conditions,Clouds,dailyrainin,SoftwareType,DateUTC
2013-02-21 00:03:00,6.8,0.3,29.72,ESE,112,0.0,-999.0,74,-99.99,,,0.00,Acu-Link.com,2013-02-21 05:03:00,
2013-02-21 00:18:00,6.6,0.1,29.72,SSW,202,0.0,-999.0,74,-99.99,,,0.00,Acu-Link.com,2013-02-21 05:18:00,
2013-02-21 00:33:00,6.4,0.5,29.73,SW,225,0.0,-999.0,76,-99.99,,,0.00,Acu-Link.com,2013-02-21 05:33:00,
2013-02-21 00:49:00,6.6,0.1,29.72,North,0,0.0,-999.0,74,-99.99,,,0.00,Acu-Link.com,2013-02-21 05:49:00,
2013-02-21 01:04:00,6.3,0.9,29.73,East,90,0.0,-999.0,78,-99.99,,,0.00,Acu-Link.com,2013-02-21 06:04:00,
2013-02-21 01:19:00,6.3,0.3,29.74,North,0,0.0,-999.0,76,-99.99,,,0.00,Acu-Link.com,2013-02-21 06:19:00,
2013-02-21 01:34:00,6.3,-0.2,29.74,SE,135,0.0,-999.0,74,-99.99,,,0.00,Acu-Link.com,2013-02-21 06:34:00,
2013-02-21 01:49:00,6.3,-0.2,29.74,East,90,0.0,-999.0,74,-99.99,,,0.00,Acu-Link.com,2013-02-21 06:49:00,
2013-02-21 02:05:00,6.1,-0.1,29.74,WSW,247,0.0,-999.0,75,-99.99,,,0.00,Acu-Link.com,2013-02-21 07:05:00,
2013-02-21 02:20:00,6.1,-0.1,29.75,SW,225,0.0,-999.0,75,-99.99,,,0.00,Acu-Link.com,2013-02-21 07:20:00,
2013-02-21 02:35:00,5.9,0.0,29.75,North,0,0.0,-999.0,76,-99.99,,,0.00,Acu-Link.com,2013-02-21 07:35:00,
2013-02-21 02:50:00,5.9,-0.3,29.75,North,0,0.0,-999.0,75,-99.99,,,0.00,Acu-Link.com,2013-02-21 07:50:00,
2013-02-21 03:05:00,5.9,-0.6,29.74,North,0,0.0,-999.0,74,-99.99,,,0.00,Acu-Link.com,2013-02-21 08:05:00,
2013-02-21 03:21:00,5.9,-0.3,29.76,ESE,112,0.0,-999.0,75,-99.99,,,0.00,Acu-Link.com,2013-02-21 08:21:00,
2013-02-21 03:36:00,5.9,0.0,29.76,North,0,0.0,-999.0,76,-99.99,,,0.00,Acu-Link.com,2013-02-21 08:36:00,
2013-02-21 03:51:00,5.7,-0.2,29.77,SW,225,0.0,-999.0,76,-99.99,,,0.00,Acu-Link.com,2013-02-21 08:51:00,
2013-02-21 04:21:00,5.7,-0.5,29.77,SW,225,0.0,-999.0,75,-99.99,,,0.00,Acu-Link.com,2013-02-21 09:21:00,
2013-02-21 04:36:00,5.5,-0.9,29.78,NNW,337,0.0,-999.0,74,-99.99,,,0.00,Acu-Link.com,2013-02-21 09:36:00,
2013-02-21 04:51:00,5.4,-0.5,29.79,SSE,157,0.0,-999.0,76,-99.99,,,0.00,Acu-Link.com,2013-02-21 09:51:00,
2013-02-21 05:06:00,5.4,-0.5,29.80,South,180,0.0,-999.0,76,-99.99,,,0.00,Acu-Link.com,2013-02-21 10:06:00,
2013-02-21 05:21:00,5.4,-0.3,29.80,SW,225,0.0,-999.0,77,-99.99,,,0.00,Acu-Link.com,2013-02-21 10:21:00,
2013-02-21 05:37:00,5.5,-0.1,29.81,SW,225,0.0,-999.0,77,-99.99,,,0.00,Acu-Link.com,2013-02-21 10:37:00,
2013-02-21 05:52:00,5.5,0.2,29.82,North,0,0.0,-999.0,78,-99.99,,,0.00,Acu-Link.com,2013-02-21 10:52:00,
2013-02-21 06:07:00,5.7,0.1,29.82,North,0,0.0,-999.0,77,-99.99,,,0.00,Acu-Link.com,2013-02-21 11:07:00,
2013-02-21 06:22:00,5.9,0.3,29.82,North,0,0.0,-999.0,77,-99.99,,,0.00,Acu-Link.com,2013-02-21 11:22:00,
2013-02-21 06:37:00,5.9,0.3,29.84,North,0,0.0,-999.0,77,-99.99,,,0.00,Acu-Link.com,2013-02-21 11:37:00,
2013-02-21 06:53:00,6.1,1.0,29.84,WSW,247,0.0,-999.0,79,-99.99,,,0.00,Acu-Link.com,2013-02-21 11:53:00,
2013-02-21 07:08:00,6.6,1.0,29.85,WSW,247,0.0,-999.0,77,-99.99,,,0.00,Acu-Link.com,2013-02-21 12:08:00,
2013-02-21 07:23:00,7.0,1.3,29.86,SSW,202,0.0,-999.0,77,-99.99,,,0.00,Acu-Link.com,2013-02-21 12:23:00,
2013-02-21 07:38:00,7.2,1.8,29.87,SW,225,0.0,-999.0,78,-99.99,,,0.00,Acu-Link.com,2013-02-21 12:38:00,
2013-02-21 07:53:00,7.7,1.5,29.87,SSW,202,0.0,-999.0,75,-99.99,,,0.00,Acu-Link.com,2013-02-21 12:53:00,
2013-02-21 08:09:00,7.7,1.5,29.88,SW,225,0.0,-999.0,75,-99.99,,,0.00,Acu-Link.com,2013-02-21 13:09:00,
2013-02-21 08:24:00,9.0,2.1,29.88,WSW,247,0.0,-999.0,73,-99.99,,,0.00,Acu-Link.com,2013-02-21 13:24:00,
2013-02-21 08:39:00,8.8,2.2,29.89,North,0,0.0,-999.0,74,-99.99,,,0.00,Acu-Link.com,2013-02-21 13:39:00,
2013-02-21 08:54:00,10.8,3.5,29.89,North,0,0.0,-999.0,72,-99.99,,,0.00,Acu-Link.com,2013-02-21 13:54:00,
2013-02-21 09:09:00,12.9,5.3,29.90,North,0,0.0,-999.0,71,-99.99,,,0.00,Acu-Link.com,2013-02-21 14:09:00,
2013-02-21 09:25:00,13.8,6.2,29.90,North,0,0.0,-999.0,71,-99.99,,,0.00,Acu-Link.com,2013-02-21 14:25:00,
2013-02-21 09:40:00,15.1,7.7,29.91,SSW,202,0.0,-999.0,72,-99.99,,,0.00,Acu-Link.com,2013-02-21 14:40:00,
2013-02-21 09:55:00,18.7,10.2,29.91,SSW,202,0.0,-999.0,69,-99.99,,,0.00,Acu-Link.com,2013-02-21 14:55:00,
2013-02-21 10:10:00,18.9,9.7,29.92,WSW,247,0.0,-999.0,67,-99.99,,,0.00,Acu-Link.com,2013-02-21 15:10:00,
2013-02-21 10:25:00,19.2,10.4,29.94,SSE,157,0.0,-999.0,68,-99.99,,,0.00,Acu-Link.com,2013-02-21 15:25:00,
2013-02-21 10:41:00,26.6,14.6,29.95,SW,225,0.0,-999.0,60,-99.99,,,0.00,Acu-Link.com,2013-02-21 15:41:00,
2013-02-21 10:56:00,25.3,12.3,29.96,North,0,0.0,-999.0,57,-99.99,,,0.00,Acu-Link.com,2013-02-21 15:56:00,
2013-02-21 11:11:00,30.7,16.9,29.96,ESE,112,0.0,-999.0,56,-99.99,,,0.00,Acu-Link.com,2013-02-21 16:11:00,
2013-02-21 11:26:00,31.8,16.2,29.97,North,0,0.0,-999.0,52,-99.99,,,0.00,Acu-Link.com,2013-02-21 16:26:00,
2013-02-21 11:41:00,35.8,19.9,29.97,ESE,112,0.0,-999.0,52,-99.99,,,0.00,Acu-Link.com,2013-02-21 16:41:00,
2013-02-21 11:57:00,36.1,19.3,29.98,NNW,337,0.0,-999.0,50,-99.99,,,0.00,Acu-Link.com,2013-02-21 16:57:00,
2013-02-21 12:12:00,37.4,21.4,29.98,NNW,337,0.0,-999.0,52,-99.99,,,0.00,Acu-Link.com,2013-02-21 17:12:00,
2013-02-21 12:27:00,38.3,20.8,29.98,SW,225,0.0,-999.0,49,-99.99,,,0.01,Acu-Link.com,2013-02-21 17:27:00,
2013-02-21 12:42:00,36.1,20.7,29.99,SSW,202,0.0,-999.0,53,-99.99,,,0.01,Acu-Link.com,2013-02-21 17:42:00,
2013-02-21 12:57:00,36.3,22.1,29.99,SE,135,0.0,-999.0,56,-99.99,,,0.01,Acu-Link.com,2013-02-21 17:57:00,
2013-02-21 13:13:00,34.5,21.3,30.01,WSW,247,0.0,-999.0,58,-99.99,,,0.01,Acu-Link.com,2013-02-21 18:13:00,
2013-02-21 13:28:00,31.3,20.2,30.02,North,0,0.0,-999.0,63,-99.99,,,0.02,Acu-Link.com,2013-02-21 18:28:00,
2013-02-21 13:43:00,31.8,20.7,30.02,North,0,0.0,-999.0,63,-99.99,,,0.02,Acu-Link.com,2013-02-21 18:43:00,
2013-02-21 13:58:00,32.9,21.3,30.03,SSE,157,0.0,-999.0,62,-99.99,,,0.02,Acu-Link.com,2013-02-21 18:58:00,
2013-02-21 14:13:00,32.9,21.7,30.05,SSE,157,0.0,-999.0,63,-99.99,,,0.02,Acu-Link.com,2013-02-21 19:13:00,
2013-02-21 14:29:00,31.8,22.1,30.05,SE,135,0.0,-999.0,67,-99.99,,,0.02,Acu-Link.com,2013-02-21 19:29:00,
2013-02-21 14:44:00,31.8,22.8,30.06,SSE,157,0.0,-999.0,69,-99.99,,,0.02,Acu-Link.com,2013-02-21 19:44:00,
2013-02-21 14:59:00,30.4,23.1,30.07,NNW,337,0.0,-999.0,74,-99.99,,,0.02,Acu-Link.com,2013-02-21 19:59:00,
2013-02-21 15:14:00,30.7,23.8,30.08,NNW,337,0.0,-999.0,75,-99.99,,,0.02,Acu-Link.com,2013-02-21 20:14:00,
2013-02-21 15:29:00,30.9,24.6,30.10,SE,135,0.0,-999.0,77,-99.99,,,0.02,Acu-Link.com,2013-02-21 20:29:00,
2013-02-21 15:45:00,30.7,25.3,30.10,SSW,202,0.0,-999.0,80,-99.99,,,0.02,Acu-Link.com,2013-02-21 20:45:00,
2013-02-21 16:00:00,31.1,26.6,30.11,NNW,337,0.0,-999.0,83,-99.99,,,0.02,Acu-Link.com,2013-02-21 21:00:00,
2013-02-21 16:15:00,31.5,26.0,30.12,NNW,337,0.0,-999.0,80,-99.99,,,0.02,Acu-Link.com,2013-02-21 21:15:00,
2013-02-21 16:30:00,32.4,26.3,30.14,ESE,112,0.0,-999.0,78,-99.99,,,0.02,Acu-Link.com,2013-02-21 21:30:00,
2013-02-21 16:45:00,32.5,26.8,30.15,SW,225,0.0,-999.0,79,-99.99,,,0.02,Acu-Link.com,2013-02-21 21:45:00,
2013-02-21 17:01:00,32.7,27.2,30.16,SW,225,0.0,-999.0,80,-99.99,,,0.02,Acu-Link.com,2013-02-21 22:01:00,
2013-02-21 17:16:00,32.0,27.4,30.17,South,180,0.0,-999.0,83,-99.99,,,0.02,Acu-Link.com,2013-02-21 22:16:00,
2013-02-21 17:31:00,30.7,28.2,30.18,SE,135,0.0,-999.0,90,-99.99,,,0.02,Acu-Link.com,2013-02-21 22:31:00,
2013-02-21 17:46:00,30.7,30.2,30.18,North,0,0.0,-999.0,98,-99.99,,,0.02,Acu-Link.com,2013-02-21 22:46:00,
2013-02-21 18:01:00,30.9,30.4,30.20,ENE,67,0.0,-999.0,98,-99.99,,,0.02,Acu-Link.com,2013-02-21 23:01:00,
2013-02-21 18:16:00,30.7,27.3,30.20,East,90,0.0,-999.0,87,-99.99,,,0.02,Acu-Link.com,2013-02-21 23:16:00,
2013-02-21 18:32:00,31.1,25.1,30.21,ENE,67,0.0,-999.0,78,-99.99,,,0.02,Acu-Link.com,2013-02-21 23:32:00,
2013-02-21 18:47:00,31.3,25.2,30.22,East,90,0.0,-999.0,78,-99.99,,,0.02,Acu-Link.com,2013-02-21 23:47:00,
2013-02-21 19:02:00,31.3,25.2,30.23,East,90,0.0,-999.0,78,-99.99,,,0.02,Acu-Link.com,2013-02-22 00:02:00,
2013-02-21 19:17:00,30.9,25.2,30.23,ENE,67,0.0,-999.0,79,-99.99,,,0.02,Acu-Link.com,2013-02-22 00:17:00,
2013-02-21 19:32:00,30.7,24.7,30.23,East,90,0.0,-999.0,78,-99.99,,,0.02,Acu-Link.com,2013-02-22 00:32:00,
2013-02-21 19:48:00,30.9,23.9,30.24,NE,45,0.0,-999.0,75,-99.99,,,0.02,Acu-Link.com,2013-02-22 00:48:00,
2013-02-21 20:03:00,31.1,23.1,30.25,ENE,67,0.0,-999.0,72,-99.99,,,0.02,Acu-Link.com,2013-02-22 01:03:00,
2013-02-21 20:18:00,30.9,22.6,30.26,ENE,67,0.0,-999.0,71,-99.99,,,0.02,Acu-Link.com,2013-02-22 01:18:00,
2013-02-21 20:33:00,30.2,22.6,30.25,East,90,0.0,-999.0,73,-99.99,,,0.02,Acu-Link.com,2013-02-22 01:33:00,
2013-02-21 20:48:00,30.2,22.9,30.26,NE,45,0.0,-999.0,74,-99.99,,,0.02,Acu-Link.com,2013-02-22 01:48:00,
2013-02-21 21:04:00,29.5,22.9,30.28,North,0,0.0,-999.0,76,-99.99,,,0.02,Acu-Link.com,2013-02-22 02:04:00,
2013-02-21 21:19:00,28.4,22.4,30.29,North,0,0.0,-999.0,78,-99.99,,,0.02,Acu-Link.com,2013-02-22 02:19:00,
2013-02-21 21:34:00,27.0,22.2,30.29,North,0,0.0,-999.0,82,-99.99,,,0.02,Acu-Link.com,2013-02-22 02:34:00,
2013-02-21 21:49:00,26.4,22.5,30.31,North,0,0.0,-999.0,85,-99.99,,,0.02,Acu-Link.com,2013-02-22 02:49:00,
2013-02-21 22:05:00,25.9,23.1,30.33,North,0,0.0,-999.0,89,-99.99,,,0.02,Acu-Link.com,2013-02-22 03:05:00,
2013-02-21 22:20:00,24.8,22.6,30.34,North,0,0.0,-999.0,91,-99.99,,,0.02,Acu-Link.com,2013-02-22 03:20:00,
2013-02-21 22:35:00,24.1,23.6,30.35,North,0,0.0,-999.0,98,-99.99,,,0.02,Acu-Link.com,2013-02-22 03:35:00,
2013-02-21 22:50:00,23.2,22.7,30.34,North,0,0.0,-999.0,98,-99.99,,,0.02,Acu-Link.com,2013-02-22 03:50:00,
2013-02-21 23:05:00,24.1,23.6,30.37,North,0,0.0,-999.0,98,-99.99,,,0.02,Acu-Link.com,2013-02-22 04:05:00,
2013-02-21 23:21:00,25.2,24.7,30.37,North,0,0.0,-999.0,98,-99.99,,,0.02,Acu-Link.com,2013-02-22 04:21:00,
2013-02-21 23:36:00,24.8,24.3,30.38,North,0,0.0,-999.0,98,-99.99,,,0.02,Acu-Link.com,2013-02-22 04:36:00,
2013-02-21 23:51:00,25.2,24.7,30.39,North,0,0.0,-999.0,98,-99.99,,,0.02,Acu-Link.com,2013-02-22 04:51:00,